• Join FlightAware (Why Join?)
  • Login
  • US Flag 
08:50AM EDT


 

Airport Tracker/Info


-or-


 

Live Flight TrackerFlight Track Log ✈ SWA542 ✈ 09-Apr-2013 ✈ KMCO - KMDW

Flight Track Log - Related Links

Times and Time Zones

All times are in EDT time to prevent confusion due to time zone crossing. See the SWA542 flight status page for this flight to view local times or setup timezone preferences in your user account.

Time Position Orientation Groundspeed Altitude Reporting Facility
EDT Latitude Longitude Course Direction KTS MPH feet Rate Location/Type
07:33PM 28.4167 -81.3167 208° Southwest 169 194 900  Level Orlando TRACON
07:34PM 28.3333 -81.3667 208° Southwest 239 275 4,500 2,400 Climbing Orlando TRACON
07:35PM 28.3333 -81.4500 270° West 255 293 7,300 2,820 Climbing Orlando TRACON
07:36PM 28.3333 -81.5333 270° West 265 305 10,200 2,400 Climbing Orlando TRACON
07:37PM 28.3500 -81.6167 283° West 336 387 11,900 2,040 Climbing Orlando TRACON
07:39PM 28.3833 -81.8308 280° West 377 434 16,000 2,340 Climbing Jacksonville Center
07:40PM 28.4219 -81.9461 291° West 377 434 18,700 2,460 Climbing Jacksonville Center
07:41PM 28.4622 -82.0636 291° West 393 452 21,000 2,400 Climbing Jacksonville Center
07:42PM 28.5006 -82.1817 290° West 398 458 23,600 2,220 Climbing Jacksonville Center
07:43PM 28.5450 -82.2969 294° West 403 464 25,500 1,680 Climbing Jacksonville Center
07:44PM 28.5872 -82.4175 292° West 408 470 27,000 1,500 Climbing Jacksonville Center
07:45PM 28.6314 -82.5378 293° West 408 470 28,600 1,380 Climbing Jacksonville Center
07:46PM 28.7172 -82.6061 325° Northwest 408 470 29,900 1,260 Climbing Jacksonville Center
07:47PM 28.8322 -82.6603 338° Northwest 417 480 31,100 1,260 Climbing Jacksonville Center
07:48PM 28.9492 -82.7194 336° Northwest 430 495 32,500 1,380 Climbing Jacksonville Center
07:49PM 29.0639 -82.7786 336° Northwest 443 510 33,900 720 Climbing Jacksonville Center
07:50PM 29.1767 -82.8356 336° Northwest 443 510 34,000  Climbing Jacksonville Center
07:51PM 29.2894 -82.8925 336° Northwest 443 510 34,000  Level Jacksonville Center
07:52PM 29.4022 -82.9497 336° Northwest 443 510 34,000  Level Jacksonville Center
07:53PM 29.5169 -83.0094 336° Northwest 443 510 34,000 660 Level Jacksonville Center
07:54PM 29.6275 -83.0647 337° Northwest 443 510 35,400 960 Climbing Jacksonville Center
07:55PM 29.7422 -83.1175 338° Northwest 436 502 36,000 300 Climbing Jacksonville Center
07:56PM 29.8508 -83.1681 338° Northwest 431 496 36,000  Level Jacksonville Center
07:57PM 29.9592 -83.2186 338° Northwest 424 488 36,000  Level Jacksonville Center
07:58PM 30.0822 -83.2742 339° North 424 488 36,000  Level Jacksonville Center
07:59PM 30.1947 -83.3253 339° North 424 488 36,000  Level Jacksonville Center
08:00PM 30.3031 -83.3786 337° Northwest 424 488 36,000  Level Jacksonville Center
08:01PM 30.4136 -83.4272 339° North 424 488 36,000  Level Jacksonville Center
08:02PM 30.5325 -83.4594 347° North 424 488 36,000  Level Jacksonville Center
08:03PM 30.6514 -83.4889 348° North 424 488 36,000  Level Jacksonville Center
08:04PM 30.7722 -83.5189 348° North 429 494 36,000  Level Jacksonville Center
08:05PM 30.8767 -83.5461 347° North 428 493 36,000  Level Jacksonville Center
08:06PM 30.9933 -83.5761 348° North 428 493 36,000  Level Jacksonville Center
08:07PM 31.1100 -83.6083 347° North 428 493 36,000  Level Jacksonville Center
08:08PM 31.2269 -83.6383 348° North 428 493 36,000  Level Jacksonville Center
08:10PM 31.4456 -83.6956 347° North 451 519 36,000  Level Atlanta Center
08:11PM 31.5606 -83.7269 347° North 435 501 36,000  Level Atlanta Center
08:12PM 31.6942 -83.7581 349° North 435 501 36,000  Level Atlanta Center
08:13PM 31.8131 -83.7919 346° North 435 501 36,000  Level Atlanta Center
08:14PM 31.9364 -83.8233 348° North 435 501 36,000  Level Atlanta Center
08:15PM 32.0533 -83.8550 347° North 435 501 36,000  Level Atlanta Center
08:16PM 32.1703 -83.8867 347° North 435 501 36,000  Level Atlanta Center
08:17PM 32.2892 -83.9161 348° North 435 501 36,000  Level Atlanta Center
08:18PM 32.4042 -83.9478 347° North 435 501 36,000  Level Atlanta Center
08:19PM 32.5250 -83.9822 346° North 435 501 36,000  Level Atlanta Center
08:20PM 32.6442 -84.0142 347° North 435 501 36,000  Level Atlanta Center
08:21PM 32.7631 -84.0439 348° North 430 495 36,000  Level Atlanta Center
08:22PM 32.8800 -84.0783 346° North 430 495 36,000  Level Atlanta Center
08:23PM 33.0011 -84.1033 350° North 430 495 36,000  Level Atlanta Center
08:24PM 33.1158 -84.1431 344° North 422 486 36,000  Level Atlanta Center
08:25PM 33.2347 -84.1756 347° North 422 486 36,000  Level Atlanta Center
08:26PM 33.3392 -84.2006 349° North 428 493 36,000  Level Atlanta Center
08:27PM 33.4581 -84.2331 347° North 434 499 36,000  Level Atlanta Center
08:28PM 33.5728 -84.2633 348° North 428 493 36,000  Level Atlanta Center
08:29PM 33.6939 -84.2983 346° North 433 498 36,000  Level Atlanta Center
08:30PM 33.8106 -84.3314 347° North 433 498 36,000  Level Atlanta Center
08:31PM 33.9294 -84.3642 347° North 433 498 36,000  Level Atlanta Center
08:32PM 34.0442 -84.3972 347° North 433 498 36,000  Level Atlanta Center
08:33PM 34.1736 -84.4281 349° North 456 525 36,000  Level Atlanta Center
08:34PM 34.2903 -84.4611 347° North 450 518 36,000  Level Atlanta Center
08:35PM 34.4133 -84.4944 347° North 444 511 36,000  Level Atlanta Center
08:36PM 34.5300 -84.5278 347° North 438 504 36,000  Level Atlanta Center
08:37PM 34.6508 -84.5589 348° North 438 504 36,000  Level Atlanta Center
08:38PM 34.7636 -84.5950 345° North 425 489 36,000  Level Atlanta Center
08:39PM 34.8803 -84.6286 347° North 425 489 36,000  Level Atlanta Center
08:40PM 34.9989 -84.6625 347° North 430 495 36,000  Level Atlanta Center
08:41PM 35.1136 -84.6964 346° North 430 495 36,000  Level Atlanta Center
08:42PM 35.2303 -84.7278 348° North 430 495 36,000  Level Atlanta Center
08:43PM 35.3469 -84.7619 347° North 430 495 36,000  Level Atlanta Center
08:44PM 35.4614 -84.7933 347° North 430 495 36,000  Level Atlanta Center
08:45PM 35.5781 -84.8278 346° North 430 495 36,000  Level Atlanta Center
08:46PM 35.6947 -84.8622 347° North 425 489 36,000  Level Atlanta Center
08:47PM 35.8197 -84.8917 349° North 434 499 36,000  Level Atlanta Center
08:49PM 36.0381 -84.9586 346° North 437 503 36,000  Level Indianapolis Center
08:50PM 36.1539 -84.9928 347° North 429 494 36,000  Level Indianapolis Center
08:51PM 36.2714 -85.0275 347° North 434 499 36,000  Level Indianapolis Center
08:52PM 36.3875 -85.0611 347° North 430 495 36,000  Level Indianapolis Center
08:53PM 36.5042 -85.0947 347° North 430 495 36,000  Level Indianapolis Center
08:54PM 36.6208 -85.1292 347° North 430 495 36,000  Level Indianapolis Center
08:55PM 36.7364 -85.1639 346° North 427 491 36,000  Level Indianapolis Center
08:56PM 36.8531 -85.1983 347° North 430 495 36,000  Level Indianapolis Center
08:57PM 36.9689 -85.2328 347° North 429 494 36,000  Level Indianapolis Center
08:58PM 37.1061 -85.2750 346° North 431 496 36,000  Level Indianapolis Center
08:59PM 37.2231 -85.3100 347° North 431 496 36,000  Level Indianapolis Center
09:00PM 37.3414 -85.3456 347° North 433 498 36,000  Level Indianapolis Center
09:01PM 37.4611 -85.3808 347° North 438 504 36,000  Level Indianapolis Center
09:02PM 37.5808 -85.4172 346° North 440 506 36,000  Level Indianapolis Center
09:03PM 37.6978 -85.4542 346° North 435 501 36,000  Level Indianapolis Center
09:04PM 37.8175 -85.4900 347° North 440 506 36,000  Level Indianapolis Center
09:05PM 37.9300 -85.5228 347° North 445 512 36,000  Level Indianapolis Center
09:06PM 38.0703 -85.5672 346° North 433 498 36,000 -540 Level Indianapolis Center
09:07PM 38.1903 -85.5936 350° North 436 502 35,000 -1,020 Descending Indianapolis Center
09:08PM 38.3100 -85.6164 352° North 434 499 34,000 -540 Descending Indianapolis Center
09:09PM 38.4283 -85.6397 351° North 429 494 34,000  Level Indianapolis Center
09:10PM 38.5464 -85.6619 352° North 429 494 34,000  Level Indianapolis Center
09:11PM 38.6678 -85.6861 351° North 437 503 34,000 -600 Level Indianapolis Center
09:12PM 38.7869 -85.7086 352° North 434 499 32,900 -1,080 Descending Indianapolis Center
09:13PM 38.9028 -85.7311 351° North 422 486 31,900 -1,020 Descending Indianapolis Center
09:14PM 39.0192 -85.7553 351° North 424 488 30,900 -960 Descending Indianapolis Center
09:15PM 39.1319 -85.7772 351° North 412 474 30,000 -660 Descending Indianapolis Center
09:16PM 39.2433 -85.7981 352° North 404 465 29,600 -840 Descending Indianapolis Center
09:17PM 39.3783 -85.8264 351° North 408 470 28,400 -1,140 Descending Indianapolis Center
09:18PM 39.4867 -85.8469 352° North 400 460 27,400 -1,020 Descending Indianapolis Center
09:19PM 39.5939 -85.8678 351° North 391 450 26,400 -1,080 Descending Indianapolis Center
09:20PM 39.6969 -85.8894 351° North 389 448 25,300 -1,020 Descending Indianapolis Center
09:21PM 39.8028 -85.9094 352° North 384 442 24,400 -660 Descending Indianapolis Center
09:22PM 39.9131 -85.9328 351° North 387 445 24,000 -240 Descending Indianapolis Center
09:23PM 40.0208 -85.9547 351° North 388 447 24,000  Level Indianapolis Center
09:24PM 40.1278 -85.9761 351° North 388 447 24,000  Level Indianapolis Center
09:25PM 40.2206 -86.0042 347° North 396 456 24,000 -360 Level Chicago Center
09:26PM 40.3247 -86.0586 338° Northwest 402 463 23,400 -840 Descending Chicago Center
09:27PM 40.4214 -86.1092 338° Northwest 375 432 22,300 -1,020 Descending Chicago Center
09:28PM 40.5125 -86.1558 339° North 355 409 21,300 -1,260 Descending Chicago Center
09:29PM 40.6025 -86.2019 339° North 348 400 19,800 -1,740 Descending Chicago Center
09:30PM 40.7058 -86.2542 339° North 332 382 17,800 -1,800 Descending Chicago Center
09:31PM 40.7906 -86.3000 338° Northwest 329 379 16,100 -1,740 Descending Chicago Center
09:32PM 40.8747 -86.3419 339° North 324 373 14,300 -1,680 Descending Chicago Center
09:33PM 40.9553 -86.3839 339° North 313 360 12,700 -1,560 Descending Chicago Center
09:34PM 41.0353 -86.4267 338° Northwest 309 356 11,100 -1,080 Descending Chicago Center
09:35PM 41.0931 -86.5006 316° Northwest 293 337 10,600 -540 Descending Chicago Center
09:36PM 41.1439 -86.5800 310° West 283 326 10,000 -300 Descending Chicago Center
09:37PM 41.1914 -86.6531 311° West 266 306 10,000  Level Chicago Center
09:39PM 41.2425 -86.7314 311° West 266 306 10,000 -300 Level Chicago Center
09:40PM 41.2994 -86.8200 311° West 265 305 9,500 -600 Descending Chicago Center
09:41PM 41.3464 -86.8958 310° West 268 308 8,800 -1,080 Descending Chicago Center
09:42PM 41.3942 -86.9697 311° West 265 305 7,300 -1,320 Descending Chicago Center
09:43PM 41.4442 -87.0458 311° West 271 312 6,200 -660 Descending Chicago Center
09:44PM 41.4911 -87.1194 310° West 267 307 6,000 -120 Descending Chicago Center
09:45PM 41.5147 -87.2028 291° West 258 297 6,000 -300 Level Chicago Center
09:46PM 41.5214 -87.2947 276° West 254 292 5,500 -1,020 Descending Chicago Center
09:47PM 41.5542 -87.4017 292° West 256 295 4,000 -780 Descending Chicago Center
09:48PM 41.5814 -87.4867 293° West 255 293 4,000  Level Chicago Center
09:49PM 41.5881 -87.5767 276° West 252 290 4,000  Level Chicago Center
09:50PM 41.5914 -87.6633 273° West 243 280 4,000  Level Chicago Center
09:51PM 41.5947 -87.7475 273° West 236 272 4,000 -120 Level Chicago Center
09:52PM 41.5914 -87.8100 266° West 197 227 3,800 -720 Descending Chicago Center
09:53PM 41.6156 -87.8744 297° West 186 214 2,600 -660 Descending Chicago Center
09:54PM 41.6531 -87.9078 326° Northwest 188 216 2,500 -60 Descending Chicago Center
09:55PM 41.6833 -87.8667 45° Northeast 184 212 2,500 -180 Level Chicago TRACON
09:56PM 41.7167 -87.8333 37° Northeast 152 175 2,200 -540 Descending Chicago TRACON
09:57PM 41.7500 -87.8000 37° Northeast 120 138 1,500 -720 Descending Chicago TRACON